EST,Max TemperatureF,Mean TemperatureF,Min TemperatureF,Max Dew PointF,MeanDew PointF,Min DewpointF,Max Humidity, Mean Humidity, Min Humidity, Max Sea Level PressureIn, Mean Sea Level PressureIn, Min Sea Level PressureIn, Max VisibilityMiles, Mean VisibilityMiles, Min VisibilityMiles, Max Wind SpeedMPH, Mean Wind SpeedMPH, Max Gust SpeedMPH,PrecipitationIn, CloudCover, Events, WindDirDegrees
2014-1-1,35,28,21,27,14,7,70,53,43,30.41,30.33,30.22,10,10,10,13,7,22,0.00,2,,349
2014-1-2,37,30,23,30,24,18,86,77,70,30.21,29.90,29.61,10,6,0,18,13,25,0.02,8,,32
2014-1-3,23,14,6,16,3,-9,80,60,41,30.46,30.05,29.57,10,5,0,29,17,34,0.02,4,,328
2014-1-4,30,15,0,14,1,-9,68,52,31,30.53,30.42,30.30,10,10,10,10,4,17,0.00,0,,243
2014-1-5,51,37,23,48,31,12,93,80,63,30.31,30.16,29.77,10,7,0,15,6,23,0.00,7,,147
2014-1-6,57,38,17,55,34,-2,94,72,39,29.79,29.59,29.44,10,8,0,24,14,38,0.27,6,,247
2014-1-7,15,9,3,-6,-13,-17,48,39,34,30.39,30.17,29.80,10,10,10,29,20,41,0.00,0,,278
2014-1-8,23,16,8,3,-4,-9,49,42,33,30.56,30.49,30.40,10,10,10,17,11,24,0.00,1,,272
2014-1-9,32,26,19,14,9,3,64,50,38,30.65,30.59,30.49,10,10,10,12,3,,0.00,2,,342
2014-1-10,39,31,23,37,28,12,93,79,59,30.57,30.40,30.19,10,4,0,8,3,,0.08,7,,35
2014-1-11,59,50,42,57,51,39,94,90,87,30.18,29.73,29.39,10,7,0,20,10,37,0.67,8,,184
2014-1-12,53,44,35,50,29,25,88,59,46,30.10,29.80,29.43,10,10,10,23,13,34,0.01,3,,277
2014-1-13,55,42,30,37,31,23,81,65,47,30.15,30.05,29.90,10,10,10,13,7,20,0.00,0,,188
2014-1-14,51,46,42,46,41,37,87,79,58,29.89,29.79,29.67,10,8,0,12,7,16,0.26,6,,240
2014-1-15,46,40,33,37,34,30,93,84,71,30.01,29.93,29.86,10,3,0,9,5,,0.00,7,,170
2014-1-16,39,36,32,36,30,21,87,73,64,29.96,29.90,29.84,10,9,3,10,7,16,0.00,7,,297
2014-1-17,48,37,26,30,25,18,75,63,40,29.99,29.94,29.87,10,10,10,12,5,17,0.00,1,,210
2014-1-18,41,32,24,36,25,9,87,69,47,29.89,29.77,29.67,10,10,4,18,9,26,0.04,5,Thunderstorm,307
2014-1-19,39,30,21,21,14,9,63,51,41,29.87,29.77,29.68,10,10,10,17,10,29,0.00,2,,246
2014-1-20,50,42,33,27,23,19,70,53,40,29.88,29.70,29.59,10,10,10,21,9,33,0.00,1,,261
2014-1-21,33,22,12,23,12,5,80,64,43,29.95,29.88,29.77,10,5,0,20,10,28,0.03,6,,15
2014-1-22,15,10,6,5,-5,-9,73,50,35,30.00,29.83,29.74,10,8,1,24,16,32,0.00,2,,317
2014-1-23,19,12,6,1,-3,-9,62,49,42,30.30,30.15,30.00,10,10,1,20,10,26,0.00,1,,287
2014-1-24,17,12,6,1,-2,-4,73,52,38,30.39,30.29,30.11,10,9,0,20,9,24,0.00,0,,267
2014-1-25,30,22,15,19,9,0,80,57,43,30.09,29.68,29.47,10,9,1,18,11,29,0.00,3,,218
2014-1-26,33,24,17,21,5,-6,69,47,35,29.92,29.80,29.50,10,9,0,21,11,33,0.00,4,,251
2014-1-27,48,34,21,28,18,-2,70,49,31,30.08,29.78,29.62,10,10,10,25,11,33,0.00,4,,257
2014-1-28,21,16,12,7,-4,-8,79,41,35,30.38,30.27,30.09,10,10,3,21,11,25,0.00,3,,301
2014-1-29,21,16,12,7,-1,-6,79,51,33,30.31,30.19,30.13,10,8,2,17,9,22,0.00,3,,286
2014-1-30,28,16,3,9,1,-8,68,51,34,30.47,30.36,30.20,10,10,2,8,5,,0.00,0,,235
2014-1-31,42,28,15,19,14,7,68,51,34,30.24,30.16,30.11,10,10,10,13,5,,0.00,1,,279